createdAt,value
2023-10-09T00:01:10.903Z,98894.84
2023-10-09T00:03:39.168Z,98872.16
2023-10-09T00:06:06.440Z,98866.88
2023-10-09T00:08:33.246Z,98865.09
2023-10-09T00:11:20.825Z,98857.88
2023-10-09T00:13:52.955Z,98859.66
2023-10-09T00:16:33.980Z,98858.31
2023-10-09T00:19:14.900Z,98855.75
2023-10-09T00:21:48.802Z,98845.38
2023-10-09T00:24:22.984Z,98830.94
2023-10-09T00:26:50.176Z,98814.97
2023-10-09T00:29:23.290Z,98813.06
2023-10-09T00:32:17.375Z,98802.91
2023-10-09T00:34:44.068Z,98783.00
2023-10-09T00:37:27.577Z,98796.75
2023-10-09T00:39:57.993Z,98801.72
2023-10-09T00:42:30.380Z,98775.13
2023-10-09T00:44:57.844Z,98755.66
2023-10-09T00:47:44.798Z,98736.47
2023-10-09T00:50:17.281Z,98734.56
2023-10-09T00:53:10.021Z,98733.63
2023-10-09T00:55:45.163Z,98737.97
2023-10-09T00:58:24.650Z,98730.44
2023-10-09T01:00:53.473Z,98690.44
2023-10-09T01:03:22.139Z,98712.69
2023-10-09T01:06:09.792Z,98728.78
2023-10-09T01:08:36.542Z,98752.50
2023-10-09T01:11:15.730Z,98759.88
2023-10-09T01:13:54.037Z,98760.84
2023-10-09T01:16:24.213Z,98770.38
2023-10-09T01:18:59.043Z,98778.41
2023-10-09T01:21:27.758Z,98774.72
2023-10-09T01:24:05.863Z,98766.75
2023-10-09T01:26:50.732Z,98750.88
2023-10-09T01:29:23.086Z,98749.19
2023-10-09T01:31:57.928Z,98748.34
2023-10-09T01:34:45.795Z,98737.00
2023-10-09T01:37:34.644Z,98721.22
2023-10-09T01:40:21.002Z,98723.94
2023-10-09T01:42:48.082Z,98723.84
2023-10-09T01:45:38.109Z,98711.38
2023-10-09T01:48:06.505Z,98703.19
2023-10-09T01:50:36.566Z,98703.63
2023-10-09T01:53:03.866Z,98698.47
2023-10-09T01:55:36.725Z,98696.25
2023-10-09T01:58:25.303Z,98684.47
2023-10-09T02:00:58.515Z,98681.69
2023-10-09T02:03:25.940Z,98664.63
2023-10-09T02:05:54.722Z,98670.50
2023-10-09T02:08:27.908Z,98668.22
2023-10-09T02:10:57.343Z,98651.66
2023-10-09T02:13:36.254Z,98633.69
2023-10-09T02:16:15.834Z,98610.03
2023-10-09T02:18:55.112Z,98612.72
2023-10-09T02:21:34.995Z,98608.31
2023-10-09T02:24:10.777Z,98620.03
2023-10-09T02:26:39.937Z,98619.44
2023-10-09T02:29:16.408Z,98607.16
2023-10-09T02:31:47.238Z,98595.91
2023-10-09T02:34:14.236Z,98586.22
2023-10-09T02:37:04.064Z,98576.66
2023-10-09T02:39:37.754Z,98562.25
2023-10-09T02:42:13.579Z,98559.41
2023-10-09T02:44:47.639Z,98559.41
2023-10-09T02:47:21.687Z,98568.03
2023-10-09T02:49:51.779Z,98550.72
2023-10-09T02:52:26.311Z,98543.50
2023-10-09T02:55:00.789Z,98536.69
2023-10-09T02:57:37.362Z,98522.41
2023-10-09T03:00:19.549Z,98506.16
2023-10-09T03:02:50.009Z,98495.69
2023-10-09T03:05:17.415Z,98490.28
2023-10-09T03:07:45.488Z,98482.31
2023-10-09T03:10:12.026Z,98470.75
2023-10-09T03:12:40.403Z,98462.72
2023-10-09T03:15:09.910Z,98466.41
2023-10-09T03:17:36.723Z,98459.59
2023-10-09T03:20:13.844Z,98455.34
2023-10-09T03:22:40.779Z,98438.22
2023-10-09T03:25:15.182Z,98420.81
2023-10-09T03:27:48.570Z,98414.81
2023-10-09T03:30:18.274Z,98396.47
2023-10-09T03:32:48.149Z,98389.41
2023-10-09T03:35:18.342Z,98377.03
2023-10-09T03:37:44.783Z,98385.81
2023-10-09T03:40:18.514Z,98389.81
2023-10-09T03:42:45.930Z,98386.22
2023-10-09T03:45:27.984Z,98398.53
2023-10-09T03:48:17.013Z,98421.25
2023-10-09T03:50:44.592Z,98439.75
2023-10-09T03:53:13.698Z,98435.50
2023-10-09T03:55:40.831Z,98441.41
2023-10-09T03:58:08.435Z,98436.06
2023-10-09T04:00:46.179Z,98422.38
2023-10-09T04:03:15.361Z,98421.25
2023-10-09T04:05:44.427Z,98430.50
2023-10-09T04:08:30.127Z,98435.00
2023-10-09T04:11:04.962Z,98424.69
2023-10-09T04:13:35.381Z,98420.34
2023-10-09T04:16:12.140Z,98419.03
2023-10-09T04:18:39.996Z,98418.69
2023-10-09T04:21:19.827Z,98419.34
2023-10-09T04:24:05.983Z,98434.19
2023-10-09T04:26:35.918Z,98437.13
2023-10-09T04:29:03.417Z,98433.47
2023-10-09T04:31:38.561Z,98442.22
2023-10-09T04:34:24.988Z,98441.25
2023-10-09T04:37:01.640Z,98424.28
2023-10-09T04:39:31.627Z,98415.50
2023-10-09T04:42:18.957Z,98404.09
2023-10-09T04:45:04.737Z,98403.44
2023-10-09T04:47:59.272Z,98376.38
2023-10-09T04:50:46.491Z,98356.97
2023-10-09T04:53:15.987Z,98371.28
2023-10-09T04:55:45.414Z,98363.66
2023-10-09T04:58:24.888Z,98356.88
2023-10-09T05:01:00.615Z,98354.66
2023-10-09T05:03:59.482Z,98345.72
2023-10-09T05:06:45.282Z,98344.50
2023-10-09T05:09:15.032Z,98339.50
2023-10-09T05:12:07.987Z,98324.97
2023-10-09T05:14:40.414Z,98337.38
2023-10-09T05:17:07.861Z,98323.69
2023-10-09T05:19:43.565Z,98312.84
2023-10-09T05:22:30.023Z,98312.50
2023-10-09T05:24:59.937Z,98309.06
2023-10-09T05:27:44.768Z,98298.97
2023-10-09T05:30:25.954Z,98301.50
2023-10-09T05:32:59.352Z,98294.13
2023-10-09T05:35:41.966Z,98284.72
2023-10-09T05:38:24.201Z,98293.75
2023-10-09T05:41:05.786Z,98308.72
2023-10-09T05:43:50.801Z,98308.47
2023-10-09T05:46:17.460Z,98292.53
2023-10-09T05:48:43.945Z,98295.50
2023-10-09T05:51:10.415Z,98299.19
2023-10-09T05:53:45.916Z,98297.13
2023-10-09T05:56:31.599Z,98308.78
2023-10-09T05:59:07.539Z,98308.78
2023-10-09T06:01:52.225Z,98307.03
2023-10-09T06:04:20.257Z,98308.16
2023-10-09T06:06:47.452Z,98322.28
2023-10-09T06:09:15.376Z,98315.72
2023-10-09T06:11:50.289Z,98314.28
2023-10-09T06:14:26.308Z,98312.50
2023-10-09T06:17:12.614Z,98316.53
2023-10-09T06:19:44.854Z,98304.88
2023-10-09T06:22:30.555Z,98305.72
2023-10-09T06:24:58.731Z,98304.69
2023-10-09T06:27:44.494Z,98302.25
2023-10-09T06:30:34.545Z,98303.84
2023-10-09T06:33:21.427Z,98302.44
2023-10-09T06:35:57.103Z,98303.75
2023-10-09T06:38:24.945Z,98310.41
2023-10-09T06:41:07.345Z,98310.19
2023-10-09T06:43:38.420Z,98311.03
2023-10-09T06:46:23.284Z,98304.53
2023-10-09T06:48:58.618Z,98302.09
2023-10-09T06:51:28.245Z,98296.75
2023-10-09T06:53:56.066Z,98310.53
2023-10-09T06:56:32.859Z,98308.41
2023-10-09T06:59:16.464Z,98314.97
2023-10-09T07:01:48.302Z,98305.53
2023-10-09T07:04:41.052Z,98319.44
2023-10-09T07:07:14.052Z,98331.16
2023-10-09T07:09:43.699Z,98324.66
2023-10-09T07:12:27.264Z,98331.63
2023-10-09T07:15:16.487Z,98341.19
2023-10-09T07:17:46.851Z,98346.63
2023-10-09T07:20:36.655Z,98358.38
2023-10-09T07:23:16.097Z,98354.06
2023-10-09T07:25:55.924Z,98359.88
2023-10-09T07:28:43.602Z,98364.25
2023-10-09T07:31:25.479Z,98349.38
2023-10-09T07:33:57.910Z,98346.84
2023-10-09T07:36:35.813Z,98352.03
2023-10-09T07:39:14.209Z,98350.28
2023-10-09T07:41:46.511Z,98357.25
2023-10-09T07:44:37.611Z,98343.28
2023-10-09T07:47:23.351Z,98357.19
2023-10-09T07:49:55.028Z,98369.81
2023-10-09T07:52:23.009Z,98370.59
2023-10-09T07:55:03.840Z,98362.31
2023-10-09T07:57:39.516Z,98365.06
2023-10-09T08:00:14.101Z,98361.53
2023-10-09T08:02:40.737Z,98366.31
2023-10-09T08:05:14.532Z,98369.69
2023-10-09T08:08:04.920Z,98377.59
2023-10-09T08:10:34.518Z,98368.94
2023-10-09T08:13:22.687Z,98374.72
2023-10-09T08:15:54.949Z,98365.22
2023-10-09T08:18:33.207Z,98369.19
2023-10-09T08:20:59.666Z,98376.44
2023-10-09T08:23:34.643Z,98388.47
2023-10-09T08:26:15.612Z,98389.53
2023-10-09T08:28:46.658Z,98386.72
2023-10-09T08:31:20.636Z,98385.81
2023-10-09T08:36:33.134Z,98388.31
2023-10-09T08:39:00.173Z,98386.78
2023-10-09T08:41:31.132Z,98390.13
2023-10-09T08:43:58.839Z,98381.41
2023-10-09T08:46:30.383Z,98381.69
2023-10-09T08:48:59.486Z,98386.06
2023-10-09T08:51:27.744Z,98381.22
2023-10-09T08:53:56.640Z,98393.59
2023-10-09T08:56:23.788Z,98391.09
2023-10-09T08:58:58.379Z,98399.16
2023-10-09T09:01:26.587Z,98404.19
2023-10-09T09:03:56.837Z,98385.66
2023-10-09T09:06:24.314Z,98380.25
2023-10-09T09:08:56.338Z,98374.03
2023-10-09T09:11:26.215Z,98375.13
2023-10-09T09:14:06.609Z,98366.00
2023-10-09T09:16:36.467Z,98380.56
2023-10-09T09:19:10.506Z,98371.41
2023-10-09T09:21:41.008Z,98382.63
2023-10-09T09:24:28.040Z,98382.84
2023-10-09T09:27:00.332Z,98390.25
2023-10-09T09:29:37.719Z,98401.53
2023-10-09T09:32:18.005Z,98396.91
2023-10-09T09:34:50.749Z,98396.91
2023-10-09T09:37:21.796Z,98402.34
2023-10-09T09:39:55.801Z,98407.03
2023-10-09T09:42:28.040Z,98382.06
2023-10-09T09:44:56.852Z,98378.50
2023-10-09T09:47:28.364Z,98374.97
2023-10-09T09:50:01.079Z,98376.44
2023-10-09T09:52:30.759Z,98374.78
2023-10-09T09:54:57.372Z,98379.16
2023-10-09T09:57:28.066Z,98384.28
2023-10-09T09:59:57.855Z,98385.09
2023-10-09T10:02:30.183Z,98383.66
2023-10-09T10:05:00.276Z,98372.41
2023-10-09T10:07:30.267Z,98364.75
2023-10-09T10:09:58.892Z,98370.31
2023-10-09T10:13:01.338Z,98365.28
2023-10-09T10:16:01.503Z,98373.31
2023-10-09T10:18:54.356Z,98366.75
2023-10-09T10:21:50.042Z,98375.25
2023-10-09T10:25:01.080Z,98373.44
2023-10-09T10:27:27.806Z,98376.03
2023-10-09T10:30:13.224Z,98380.03
2023-10-09T10:32:58.709Z,98376.81
2023-10-09T10:35:45.971Z,98382.72
2023-10-09T10:38:38.065Z,98384.63
2023-10-09T10:41:19.077Z,98391.53
2023-10-09T10:43:53.308Z,98389.75
2023-10-09T10:46:31.153Z,98352.88
2023-10-09T10:49:01.365Z,98348.94
2023-10-09T10:51:39.156Z,98354.78
2023-10-09T10:54:46.651Z,98359.16
2023-10-09T10:57:29.777Z,98360.34
2023-10-09T11:00:34.456Z,98358.41
2023-10-09T11:03:14.853Z,98370.13
2023-10-09T11:05:51.822Z,98364.09
2023-10-09T11:08:23.671Z,98363.41
2023-10-09T11:10:51.637Z,98360.34
2023-10-09T11:13:38.429Z,98365.84
2023-10-09T11:16:30.202Z,98359.66
2023-10-09T11:18:58.510Z,98358.50
2023-10-09T11:21:32.018Z,98354.88
2023-10-09T11:23:59.451Z,98360.44
2023-10-09T11:26:27.719Z,98354.59
2023-10-09T11:29:18.007Z,98346.25
2023-10-09T11:32:19.271Z,98353.84
2023-10-09T11:34:56.986Z,98349.09
2023-10-09T11:37:30.753Z,98350.22
2023-10-09T11:40:01.675Z,98350.88
2023-10-09T11:42:47.773Z,98351.59
2023-10-09T11:45:25.871Z,98352.41
2023-10-09T11:48:01.059Z,98352.00
2023-10-09T11:50:51.756Z,98354.94
2023-10-09T11:53:25.273Z,98349.50
2023-10-09T11:55:54.405Z,98329.88
2023-10-09T11:58:25.228Z,98337.44
2023-10-09T12:00:57.759Z,98322.50
2023-10-09T12:03:31.589Z,98322.50
2023-10-09T12:06:13.133Z,98332.81
2023-10-09T12:08:43.252Z,98329.84
2023-10-09T12:11:10.848Z,98327.31
2023-10-09T12:13:39.728Z,98334.28
2023-10-09T12:16:10.973Z,98333.56
2023-10-09T12:18:40.353Z,98329.59
2023-10-09T12:21:07.790Z,98334.28
2023-10-09T12:23:37.170Z,98328.44
2023-10-09T12:26:04.791Z,98331.72
2023-10-09T12:28:34.163Z,98324.41
2023-10-09T12:31:03.837Z,98328.44
2023-10-09T12:33:31.183Z,98335.75
2023-10-09T12:36:01.479Z,98331.34
2023-10-09T12:38:35.241Z,98330.25
2023-10-09T12:41:26.366Z,98328.78
2023-10-09T12:43:58.569Z,98319.38
2023-10-09T12:46:26.753Z,98322.31
2023-10-09T12:48:55.553Z,98315.75
2023-10-09T12:51:26.764Z,98317.91
2023-10-09T12:53:59.291Z,98320.78
2023-10-09T12:56:38.801Z,98333.63
2023-10-09T12:59:08.497Z,98328.38
2023-10-09T13:01:43.703Z,98323.28
2023-10-09T13:04:12.748Z,98329.59
2023-10-09T13:06:44.979Z,98327.78
2023-10-09T13:09:17.491Z,98325.16
2023-10-09T13:11:44.608Z,98325.16
2023-10-09T13:14:24.080Z,98333.16
2023-10-09T13:16:54.287Z,98333.88
2023-10-09T13:19:25.280Z,98326.22
2023-10-09T13:21:51.988Z,98330.25
2023-10-09T13:24:18.491Z,98331.69
2023-10-09T13:26:52.589Z,98330.56
2023-10-09T13:29:23.881Z,98329.53
2023-10-09T13:31:53.707Z,98326.59
2023-10-09T13:34:20.143Z,98324.31
2023-10-09T13:36:54.055Z,98327.63
2023-10-09T13:39:24.646Z,98325.47
2023-10-09T13:41:59.328Z,98325.75
2023-10-09T13:44:27.824Z,98318.56
2023-10-09T13:46:58.167Z,98326.56
2023-10-09T13:49:30.177Z,98326.88
2023-10-09T13:52:00.852Z,98326.53
2023-10-09T13:54:33.251Z,98335.25
2023-10-09T13:57:06.770Z,98325.75
2023-10-09T13:59:35.986Z,98326.13
2023-10-09T14:02:10.363Z,98333.72
2023-10-09T14:04:37.537Z,98336.69
2023-10-09T14:07:07.117Z,98342.13
2023-10-09T14:09:39.888Z,98331.19
2023-10-09T14:12:08.247Z,98332.63
2023-10-09T14:14:48.270Z,98335.53
2023-10-09T14:17:24.677Z,98334.78
2023-10-09T14:20:24.236Z,98343.19
2023-10-09T14:22:53.760Z,98339.56
2023-10-09T14:25:22.514Z,98327.22
2023-10-09T14:27:49.335Z,98333.66
2023-10-09T14:30:24.139Z,98330.84
2023-10-09T14:32:57.054Z,98324.31
2023-10-09T14:35:27.797Z,98326.88
2023-10-09T14:37:57.249Z,98336.72
2023-10-09T14:40:30.593Z,98324.31
2023-10-09T14:42:59.036Z,98333.78
2023-10-09T14:45:26.947Z,98333.09
2023-10-09T14:47:55.015Z,98334.13
2023-10-09T14:50:25.179Z,98330.44
2023-10-09T14:52:52.050Z,98333.31
2023-10-09T14:55:30.336Z,98341.06
2023-10-09T14:57:57.262Z,98343.59
2023-10-09T15:00:27.498Z,98337.75
2023-10-09T15:02:54.161Z,98343.63
2023-10-09T15:05:23.694Z,98345.41
2023-10-09T15:07:51.379Z,98354.16
2023-10-09T15:10:19.383Z,98352.00
2023-10-09T15:12:48.142Z,98345.41
2023-10-09T15:15:15.104Z,98347.56
2023-10-09T15:17:46.838Z,98352.34
2023-10-09T15:20:15.834Z,98348.75
2023-10-09T15:22:46.109Z,98345.84
2023-10-09T15:25:16.317Z,98344.59
2023-10-09T15:27:43.933Z,98348.97
2023-10-09T15:30:14.549Z,98360.00
2023-10-09T15:32:42.578Z,98354.81
2023-10-09T15:35:11.111Z,98359.19
2023-10-09T15:37:38.198Z,98358.16
2023-10-09T15:40:06.734Z,98360.31
2023-10-09T15:42:35.392Z,98368.41
2023-10-09T15:45:03.388Z,98365.69
2023-10-09T15:47:29.776Z,98369.00
2023-10-09T15:49:56.251Z,98369.72
2023-10-09T15:52:27.540Z,98378.88
2023-10-09T15:54:55.364Z,98374.63
2023-10-09T15:57:23.024Z,98374.56
2023-10-09T15:59:51.277Z,98380.03
2023-10-09T16:02:18.406Z,98386.25
2023-10-09T16:04:46.099Z,98377.50
2023-10-09T16:07:12.828Z,98381.16
2023-10-09T16:09:40.383Z,98381.91
2023-10-09T16:12:08.561Z,98386.59
2023-10-09T16:14:35.870Z,98384.13
2023-10-09T16:17:03.520Z,98384.78
2023-10-09T16:19:34.174Z,98381.84
2023-10-09T16:22:04.748Z,98382.97
2023-10-09T16:24:39.455Z,98373.81
2023-10-09T16:27:09.136Z,98380.41
2023-10-09T16:29:36.190Z,98387.34
2023-10-09T16:32:03.029Z,98391.41
2023-10-09T16:34:30.541Z,98387.41
2023-10-09T16:36:57.576Z,98386.25
2023-10-09T16:39:24.095Z,98385.88
2023-10-09T16:41:50.695Z,98385.88
2023-10-09T16:44:20.810Z,98392.06
2023-10-09T16:46:47.989Z,98387.34
2023-10-09T16:49:14.750Z,98388.06
2023-10-09T16:51:43.931Z,98401.91
2023-10-09T16:54:16.588Z,98394.91
2023-10-09T16:56:43.882Z,98399.72
2023-10-09T16:59:16.126Z,98397.53
2023-10-09T17:01:45.556Z,98401.19
2023-10-09T17:04:13.387Z,98400.09
2023-10-09T17:06:40.221Z,98397.63
2023-10-09T17:09:12.158Z,98399.47
2023-10-09T17:11:42.294Z,98398.72
2023-10-09T17:14:14.015Z,98404.91
2023-10-09T17:16:46.359Z,98404.19
2023-10-09T17:19:15.260Z,98411.84
2023-10-09T17:21:42.093Z,98403.06
2023-10-09T17:24:12.018Z,98402.00
2023-10-09T17:26:42.824Z,98402.72
2023-10-09T17:29:11.472Z,98403.09
2023-10-09T17:31:40.582Z,98404.19
2023-10-09T17:34:08.772Z,98404.22
2023-10-09T17:36:36.431Z,98391.53
2023-10-09T17:39:06.018Z,98395.19
2023-10-09T17:41:35.897Z,98398.81
2023-10-09T17:44:03.420Z,98389.38
2023-10-09T17:46:30.243Z,98394.78
2023-10-09T17:49:00.314Z,98395.50
2023-10-09T17:51:27.776Z,98406.81
2023-10-09T17:53:54.288Z,98405.34
2023-10-09T17:56:20.863Z,98411.13
2023-10-09T17:58:53.244Z,98412.66
2023-10-09T18:01:20.215Z,98407.91
2023-10-09T18:03:47.038Z,98411.97
2023-10-09T18:06:17.884Z,98411.16
2023-10-09T18:08:44.848Z,98417.03
2023-10-09T18:11:15.291Z,98417.09
2023-10-09T18:13:42.100Z,98415.28
2023-10-09T18:16:12.915Z,98416.34
2023-10-09T18:18:41.070Z,98418.53
2023-10-09T18:21:09.175Z,98421.09
2023-10-09T18:23:45.921Z,98415.97
2023-10-09T18:26:17.827Z,98422.94
2023-10-09T18:28:48.975Z,98425.16
2023-10-09T18:31:19.604Z,98420.78
2023-10-09T18:33:47.584Z,98420.78
2023-10-09T18:36:14.126Z,98418.66
2023-10-09T18:38:41.937Z,98424.16
2023-10-09T18:41:08.988Z,98423.06
2023-10-09T18:43:36.324Z,98421.63
2023-10-09T18:46:11.822Z,98412.88
2023-10-09T18:48:38.718Z,98419.84
2023-10-09T18:51:15.052Z,98421.66
2023-10-09T18:53:41.559Z,98414.75
2023-10-09T18:56:15.910Z,98415.88
2023-10-09T18:58:43.191Z,98414.81
2023-10-09T19:01:15.714Z,98416.66
2023-10-09T19:03:43.520Z,98414.50
2023-10-09T19:06:11.218Z,98417.06
2023-10-09T19:08:38.103Z,98414.91
2023-10-09T19:11:11.454Z,98410.56
2023-10-09T19:13:39.757Z,98410.59
2023-10-09T19:16:08.045Z,98403.28
2023-10-09T19:21:11.441Z,98407.03
2023-10-09T19:23:40.715Z,98407.44
2023-10-09T19:26:08.145Z,98408.25
2023-10-09T19:28:34.653Z,98404.59
2023-10-09T19:31:11.853Z,98410.59
2023-10-09T19:33:39.134Z,98407.69
2023-10-09T19:36:12.683Z,98405.81
2023-10-09T19:38:40.017Z,98412.44
2023-10-09T19:41:07.499Z,98405.53
2023-10-09T19:43:35.279Z,98410.00
2023-10-09T19:46:06.197Z,98409.63
2023-10-09T19:48:34.322Z,98417.34
2023-10-09T19:51:05.095Z,98423.94
2023-10-09T19:53:32.090Z,98413.72
2023-10-09T19:56:00.323Z,98419.19
2023-10-09T19:58:27.444Z,98418.47
2023-10-09T20:00:54.457Z,98418.13
2023-10-09T20:03:21.700Z,98426.22
2023-10-09T20:05:51.803Z,98427.28
2023-10-09T20:08:18.295Z,98432.06
2023-10-09T20:10:44.937Z,98430.94
2023-10-09T20:13:12.635Z,98443.00
2023-10-09T20:15:46.888Z,98426.59
2023-10-09T20:18:13.470Z,98430.97
2023-10-09T20:20:45.892Z,98436.09
2023-10-09T20:23:17.088Z,98428.81
2023-10-09T20:25:44.023Z,98438.66
2023-10-09T20:28:11.716Z,98447.44
2023-10-09T20:30:38.879Z,98444.53
2023-10-09T20:33:06.000Z,98446.34
2023-10-09T20:35:33.278Z,98441.25
2023-10-09T20:38:02.828Z,98448.19
2023-10-09T20:40:30.038Z,98451.09
2023-10-09T20:42:59.339Z,98450.00
2023-10-09T20:45:25.883Z,98453.31
2023-10-09T20:47:59.882Z,98459.91
2023-10-09T20:50:27.057Z,98456.63
2023-10-09T20:52:54.438Z,98466.50
2023-10-09T20:55:24.317Z,98459.22
2023-10-09T20:57:57.815Z,98469.44
2023-10-09T21:00:26.509Z,98464.00
2023-10-09T21:02:55.344Z,98470.19
2023-10-09T21:05:26.328Z,98478.94
2023-10-09T21:07:54.320Z,98472.41
2023-10-09T21:10:21.868Z,98472.03
2023-10-09T21:12:54.859Z,98472.75
2023-10-09T21:15:27.692Z,98465.81
2023-10-09T21:17:54.634Z,98476.78
2023-10-09T21:20:21.401Z,98482.63
2023-10-09T21:22:51.527Z,98483.72
2023-10-09T21:25:21.391Z,98478.59
2023-10-09T21:27:48.980Z,98487.03
2023-10-09T21:30:18.388Z,98485.94
2023-10-09T21:32:46.477Z,98488.47
2023-10-09T21:35:19.779Z,98493.25
2023-10-09T21:37:59.357Z,98489.94
2023-10-09T21:40:31.430Z,98485.91
2023-10-09T21:42:59.541Z,98489.94
2023-10-09T21:45:28.161Z,98496.53
2023-10-09T21:47:58.234Z,98503.13
2023-10-09T21:50:26.339Z,98499.78
2023-10-09T21:52:58.421Z,98502.75
2023-10-09T21:55:26.389Z,98511.16
2023-10-09T21:57:54.053Z,98511.53
2023-10-09T22:00:30.844Z,98509.31
2023-10-09T22:02:57.497Z,98504.19
2023-10-09T22:05:24.141Z,98503.84
2023-10-09T22:07:52.858Z,98502.44
2023-10-09T22:10:19.454Z,98497.31
2023-10-09T22:12:48.056Z,98487.78
2023-10-09T22:15:19.443Z,98495.44
2023-10-09T22:17:46.453Z,98495.44
2023-10-09T22:20:19.235Z,98496.53
2023-10-09T22:22:50.396Z,98506.03
2023-10-09T22:25:17.687Z,98495.78
2023-10-09T22:27:52.505Z,98506.44
2023-10-09T22:30:30.386Z,98500.19
2023-10-09T22:33:03.884Z,98510.81
2023-10-09T22:35:35.010Z,98506.03
2023-10-09T22:38:13.243Z,98506.78
2023-10-09T22:40:40.640Z,98512.97
2023-10-09T22:43:10.472Z,98511.84
2023-10-09T22:45:40.388Z,98511.16
2023-10-09T22:48:07.654Z,98513.38
2023-10-09T22:50:37.175Z,98513.00
2023-10-09T22:53:23.937Z,98507.16
2023-10-09T22:55:55.233Z,98507.91
2023-10-09T22:58:29.571Z,98507.47
2023-10-09T23:01:01.821Z,98508.91
2023-10-09T23:03:29.302Z,98510.75
2023-10-09T23:06:10.081Z,98513.31
2023-10-09T23:08:37.379Z,98514.09
2023-10-09T23:11:09.746Z,98519.53
2023-10-09T23:13:40.677Z,98518.44
2023-10-09T23:16:07.925Z,98521.72
2023-10-09T23:18:56.518Z,98516.63
2023-10-09T23:21:28.978Z,98529.75
2023-10-09T23:24:09.681Z,98524.63
2023-10-09T23:26:53.083Z,98526.06
2023-10-09T23:29:30.948Z,98533.03
2023-10-09T23:32:20.372Z,98528.25
2023-10-09T23:35:08.061Z,98542.50
2023-10-09T23:37:34.947Z,98546.53
2023-10-09T23:40:09.115Z,98545.03
2023-10-09T23:42:38.719Z,98552.06
2023-10-09T23:45:07.584Z,98535.63
2023-10-09T23:47:34.867Z,98542.16
2023-10-09T23:50:01.440Z,98540.66
2023-10-09T23:52:33.470Z,98546.91
2023-10-09T23:55:03.251Z,98555.28
2023-10-09T23:57:42.778Z,98548.34
